Time;durP1;ratioP1;P1;durP2;ratioP2;P2;SDS_P1;SDS_P2;PMS_P1;PMS_P2;Temp;Humidity;BMP_temperature;BMP_pressure;BME280_temperature;BME280_humidity;BME280_pressure;Samples;Min_cycle;Max_cycle;Signal;HPM_P1;HPM_P2
2020/12/14 00:00:14;;;;;;;16.75;9.43;;;0.00;99.90;;;;;;5061201;28;20485;-48
2020/12/14 00:02:41;;;;;;;16.80;10.65;;;-0.10;99.90;;;;;;5071682;28;20055;-48
2020/12/14 00:05:08;;;;;;;10.00;4.72;;;0.00;99.90;;;;;;5056316;28;20044;-47
2020/12/14 00:07:36;;;;;;;4.43;2.58;;;-0.10;99.90;;;;;;5069792;28;20409;-48
2020/12/14 00:10:04;;;;;;;5.05;3.25;;;0.00;99.90;;;;;;5069777;28;20484;-50
2020/12/14 00:12:30;;;;;;;6.35;2.53;;;0.00;99.90;;;;;;5057873;28;20060;-48
2020/12/14 00:14:57;;;;;;;4.93;1.55;;;0.10;99.90;;;;;;5069919;28;20052;-48
2020/12/14 00:17:23;;;;;;;3.85;0.90;;;0.10;99.90;;;;;;5069145;28;20052;-47
2020/12/14 00:19:50;;;;;;;1.35;0.80;;;0.20;99.90;;;;;;5071433;28;20058;-48
2020/12/14 00:22:17;;;;;;;0.93;0.70;;;0.30;99.90;;;;;;5064288;28;20063;-48
2020/12/14 00:24:43;;;;;;;0.90;0.60;;;0.30;99.90;;;;;;5069313;28;20060;-48
2020/12/14 00:27:10;;;;;;;3.15;0.70;;;0.40;99.90;;;;;;5068331;28;20048;-48
2020/12/14 00:29:37;;;;;;;1.80;0.70;;;0.40;99.90;;;;;;5072821;28;20047;-48
2020/12/14 00:32:03;;;;;;;1.48;0.70;;;0.40;99.90;;;;;;5066830;28;20044;-48
2020/12/14 00:34:30;;;;;;;1.08;0.70;;;0.50;99.90;;;;;;5071447;28;20060;-48
2020/12/14 00:37:03;;;;;;;3.40;0.73;;;0.40;99.90;;;;;;5067542;28;20647;-48
2020/12/14 00:39:30;;;;;;;1.23;0.70;;;0.50;99.90;;;;;;5070930;28;20052;-48
2020/12/14 00:41:57;;;;;;;3.10;1.00;;;0.50;99.90;;;;;;5062805;28;20433;-48
2020/12/14 00:44:24;;;;;;;3.53;1.45;;;0.50;99.90;;;;;;5064066;28;20056;-48
2020/12/14 00:46:51;;;;;;;3.30;1.80;;;0.50;99.90;;;;;;5070959;28;20051;-47
2020/12/14 00:49:17;;;;;;;7.90;3.78;;;0.30;99.90;;;;;;5068032;28;20072;-48
2020/12/14 00:51:44;;;;;;;35.78;15.57;;;0.30;99.90;;;;;;5072288;28;20048;-48
2020/12/14 00:54:10;;;;;;;24.98;10.90;;;-0.10;99.90;;;;;;5069656;28;20452;-48
2020/12/14 00:56:37;;;;;;;25.02;11.90;;;-0.30;99.90;;;;;;5071445;28;20045;-48
2020/12/14 00:59:04;;;;;;;11.73;7.13;;;-0.30;99.90;;;;;;5066868;28;20051;-48
2020/12/14 01:01:31;;;;;;;11.00;5.90;;;-0.40;99.90;;;;;;5055498;28;20056;-47
2020/12/14 01:03:58;;;;;;;9.48;5.28;;;-0.50;99.90;;;;;;5067630;28;20048;-48
2020/12/14 01:06:25;;;;;;;7.20;4.38;;;-0.50;99.90;;;;;;5068424;28;20516;-48
2020/12/14 01:08:51;;;;;;;9.00;3.92;;;-0.60;99.90;;;;;;5068436;28;20405;-48
2020/12/14 01:11:24;;;;;;;9.70;5.03;;;-0.60;99.90;;;;;;5067969;28;20047;-50
2020/12/14 01:13:51;;;;;;;16.25;9.10;;;-0.60;99.90;;;;;;5072130;28;20072;-47
2020/12/14 01:16:18;;;;;;;18.92;9.77;;;-0.50;99.90;;;;;;5067724;28;20048;-48
2020/12/14 01:18:44;;;;;;;11.35;7.60;;;-0.30;99.90;;;;;;5054791;28;20462;-47
2020/12/14 01:21:11;;;;;;;14.32;7.50;;;-0.30;99.90;;;;;;5067341;28;20061;-48
2020/12/14 01:23:38;;;;;;;16.42;6.95;;;-0.30;99.90;;;;;;5070234;28;20053;-47
2020/12/14 01:26:04;;;;;;;9.60;6.53;;;-0.30;99.90;;;;;;5069043;28;20039;-47
2020/12/14 01:28:31;;;;;;;19.30;8.07;;;-0.10;99.90;;;;;;5070059;28;20048;-49
2020/12/14 01:30:57;;;;;;;17.60;7.15;;;0.00;99.90;;;;;;5068449;28;20044;-47
2020/12/14 01:33:24;;;;;;;14.13;7.78;;;0.00;99.90;;;;;;5067268;28;20420;-47
2020/12/14 01:35:51;;;;;;;17.20;9.27;;;0.00;99.90;;;;;;5070720;28;20102;-48
2020/12/14 01:38:18;;;;;;;16.17;8.75;;;0.10;99.90;;;;;;5067547;28;20076;-48
2020/12/14 01:40:44;;;;;;;18.98;9.70;;;0.00;99.90;;;;;;5069755;28;20052;-48
2020/12/14 01:43:11;;;;;;;16.38;9.13;;;-0.10;99.90;;;;;;5066127;28;20053;-49
2020/12/14 01:45:39;;;;;;;11.30;5.60;;;-0.10;99.90;;;;;;5057765;28;20047;-48
2020/12/14 01:48:07;;;;;;;8.70;6.25;;;-0.10;99.90;;;;;;5073633;28;20051;-48
2020/12/14 01:50:35;;;;;;;11.77;6.35;;;-0.10;99.90;;;;;;5073255;28;20041;-48
2020/12/14 01:53:03;;;;;;;11.43;6.97;;;0.00;99.90;;;;;;5073309;28;20048;-48
2020/12/14 01:55:34;;;;;;;18.10;9.18;;;0.00;99.90;;;;;;5074931;28;20052;-48
2020/12/14 01:58:00;;;;;;;18.48;10.38;;;-0.10;99.90;;;;;;5072845;28;20056;-48
2020/12/14 02:00:27;;;;;;;18.67;6.55;;;-0.20;99.90;;;;;;5070338;28;20048;-48
2020/12/14 02:02:53;;;;;;;6.43;2.60;;;-0.20;99.90;;;;;;5069887;28;20052;-48
2020/12/14 02:05:20;;;;;;;4.50;2.17;;;-0.20;99.90;;;;;;5071136;28;20044;-47
2020/12/14 02:07:47;;;;;;;3.47;1.58;;;-0.30;99.90;;;;;;5074709;28;20058;-48
2020/12/14 02:10:14;;;;;;;7.35;2.15;;;-0.10;99.90;;;;;;5072459;28;20481;-48
2020/12/14 02:12:41;;;;;;;4.13;1.55;;;-0.20;99.90;;;;;;5071946;28;20048;-47
2020/12/14 02:15:07;;;;;;;4.97;1.30;;;-0.30;99.90;;;;;;5065980;28;20392;-49
2020/12/14 02:17:34;;;;;;;2.95;1.60;;;-0.40;99.90;;;;;;5064874;28;20493;-48
2020/12/14 02:20:01;;;;;;;2.25;1.13;;;-0.30;99.90;;;;;;5072875;28;20570;-47
2020/12/14 02:22:28;;;;;;;3.33;1.40;;;-0.40;99.90;;;;;;5074082;28;20067;-48
2020/12/14 02:24:59;;;;;;;8.35;2.75;;;-0.30;99.90;;;;;;5061216;28;20580;-48
2020/12/14 02:27:30;;;;;;;8.30;4.10;;;-0.20;99.90;;;;;;5071326;28;20072;-48
2020/12/14 02:29:57;;;;;;;7.30;4.45;;;-0.10;99.90;;;;;;5060528;28;20059;-48
2020/12/14 02:32:26;;;;;;;8.43;3.28;;;0.00;99.90;;;;;;5066995;28;20047;-48
2020/12/14 02:34:53;;;;;;;12.25;4.85;;;-0.10;99.90;;;;;;5060901;28;20485;-48
2020/12/14 02:37:23;;;;;;;12.20;5.25;;;-0.20;99.90;;;;;;5070643;28;20393;-49
2020/12/14 02:39:49;;;;;;;8.95;3.20;;;-0.20;99.90;;;;;;5063565;28;20502;-47
2020/12/14 02:42:19;;;;;;;7.82;3.55;;;-0.30;99.90;;;;;;5074009;28;20500;-48
2020/12/14 02:44:47;;;;;;;5.63;2.70;;;-0.30;99.90;;;;;;5070893;28;20138;-48
2020/12/14 02:47:14;;;;;;;5.85;2.80;;;-0.40;99.90;;;;;;5072909;28;20049;-49
2020/12/14 02:49:42;;;;;;;4.13;1.98;;;-0.40;99.90;;;;;;5069272;28;20076;-47
2020/12/14 02:52:10;;;;;;;6.97;3.45;;;-0.50;99.90;;;;;;5073644;28;20045;-48
2020/12/14 02:54:39;;;;;;;7.60;2.92;;;-0.60;99.90;;;;;;5071423;28;20051;-48
2020/12/14 02:57:06;;;;;;;7.10;3.15;;;-0.50;99.90;;;;;;5071598;28;20506;-48
2020/12/14 02:59:33;;;;;;;6.55;3.35;;;-0.50;99.90;;;;;;5074191;28;20047;-48
2020/12/14 03:01:59;;;;;;;7.40;3.67;;;-0.50;99.90;;;;;;5070235;28;20051;-48
2020/12/14 03:04:26;;;;;;;8.20;3.38;;;-0.50;99.90;;;;;;5061577;28;20431;-48
2020/12/14 03:06:53;;;;;;;11.60;5.85;;;-0.50;99.90;;;;;;5065894;28;20045;-48
2020/12/14 03:09:21;;;;;;;14.05;8.85;;;-0.50;99.90;;;;;;5074492;28;20064;-48
2020/12/14 03:11:49;;;;;;;8.02;4.55;;;-0.50;99.90;;;;;;5068880;28;20044;-48
2020/12/14 03:14:16;;;;;;;9.10;3.95;;;-0.50;99.90;;;;;;5062574;28;20432;-48
2020/12/14 03:16:47;;;;;;;7.00;4.68;;;-0.50;99.90;;;;;;5071220;28;20049;-47
2020/12/14 03:19:14;;;;;;;8.65;4.35;;;-0.50;99.90;;;;;;5070324;28;20075;-48
2020/12/14 03:21:41;;;;;;;5.32;4.03;;;-0.50;99.90;;;;;;5072653;28;20056;-49
2020/12/14 03:24:08;;;;;;;10.00;5.07;;;-0.40;99.90;;;;;;5068685;28;20397;-48
2020/12/14 03:26:35;;;;;;;9.02;5.45;;;-0.40;99.90;;;;;;5070409;28;20048;-48
2020/12/14 03:29:03;;;;;;;11.75;6.35;;;-0.60;99.90;;;;;;5069499;28;20097;-48
2020/12/14 03:31:30;;;;;;;10.25;6.47;;;-0.60;99.90;;;;;;5073103;28;20649;-47
2020/12/14 03:33:57;;;;;;;12.07;4.25;;;-0.50;99.90;;;;;;5068024;28;20128;-48
2020/12/14 03:36:24;;;;;;;8.38;4.70;;;-0.70;99.90;;;;;;5069659;28;20049;-48
2020/12/14 03:38:52;;;;;;;10.52;5.32;;;-0.80;99.90;;;;;;5065222;28;20049;-47
2020/12/14 03:41:21;;;;;;;7.68;4.55;;;-0.90;99.90;;;;;;5068326;28;20472;-47
2020/12/14 03:43:49;;;;;;;11.65;6.57;;;-1.00;99.90;;;;;;5069165;28;20048;-48
2020/12/14 03:46:24;;;;;;;8.38;5.38;;;-1.00;99.90;;;;;;5068067;28;20464;-47
2020/12/14 03:48:55;;;;;;;14.20;6.53;;;-1.00;99.90;;;;;;5068709;28;20135;-48
2020/12/14 03:51:24;;;;;;;8.23;5.03;;;-0.90;99.90;;;;;;5067600;28;20048;-47
2020/12/14 03:53:51;;;;;;;15.32;5.57;;;-1.00;99.90;;;;;;5074024;28;20076;-47
2020/12/14 03:56:19;;;;;;;8.32;4.95;;;-1.00;99.90;;;;;;5068689;28;20127;-47
2020/12/14 03:58:46;;;;;;;7.95;4.10;;;-1.00;99.90;;;;;;5064884;28;20053;-47
2020/12/14 04:01:17;;;;;;;8.90;3.92;;;-1.10;99.90;;;;;;5063163;28;20497;-48
2020/12/14 04:03:44;;;;;;;5.22;2.75;;;-1.10;99.90;;;;;;5060740;28;20060;-47
2020/12/14 04:06:19;;;;;;;3.60;1.25;;;-1.10;99.90;;;;;;5059694;28;20056;-47
2020/12/14 04:08:47;;;;;;;3.38;1.02;;;-0.90;99.90;;;;;;5065674;28;20044;-47
2020/12/14 04:11:14;;;;;;;5.50;3.53;;;-0.90;99.90;;;;;;5069082;28;20485;-48
2020/12/14 04:13:41;;;;;;;6.05;2.90;;;-0.90;99.90;;;;;;5069489;28;20485;-47
2020/12/14 04:16:09;;;;;;;4.60;2.25;;;-0.90;99.90;;;;;;5071966;28;20052;-47
2020/12/14 04:18:36;;;;;;;4.07;1.30;;;-0.90;99.90;;;;;;5067745;28;20056;-47
2020/12/14 04:21:04;;;;;;;3.67;1.38;;;-0.80;99.90;;;;;;5071594;28;20079;-47
2020/12/14 04:23:31;;;;;;;4.20;1.80;;;-0.80;99.90;;;;;;5064674;28;20411;-47
2020/12/14 04:25:57;;;;;;;2.80;2.13;;;-0.80;99.90;;;;;;5059148;28;20538;-47
2020/12/14 04:28:24;;;;;;;4.03;2.47;;;-1.00;99.90;;;;;;5071443;28;20052;-47
2020/12/14 04:30:50;;;;;;;4.80;2.20;;;-1.10;99.90;;;;;;5068738;28;20048;-47
2020/12/14 04:33:18;;;;;;;4.80;1.98;;;-1.10;99.90;;;;;;5057853;28;20048;-47
2020/12/14 04:35:44;;;;;;;4.95;2.40;;;-1.20;99.90;;;;;;5064173;28;20044;-47
2020/12/14 04:38:11;;;;;;;3.28;2.17;;;-1.20;99.90;;;;;;5071639;28;20052;-47
2020/12/14 04:40:37;;;;;;;6.05;3.08;;;-1.30;99.90;;;;;;5067862;28;20059;-48
2020/12/14 04:43:07;;;;;;;5.55;3.58;;;-1.20;99.90;;;;;;5071134;28;20045;-47
2020/12/14 04:45:35;;;;;;;7.78;4.00;;;-1.20;99.90;;;;;;5066479;28;20037;-47
2020/12/14 04:48:02;;;;;;;8.07;3.42;;;-1.20;99.90;;;;;;5057910;28;20044;-47
2020/12/14 04:50:28;;;;;;;4.72;2.47;;;-1.10;99.90;;;;;;5070895;28;20044;-47
2020/12/14 04:52:56;;;;;;;3.70;1.90;;;-1.00;99.90;;;;;;5069159;28;20052;-47
2020/12/14 04:55:23;;;;;;;3.40;1.25;;;-0.90;99.90;;;;;;5066780;28;20056;-48
2020/12/14 04:57:51;;;;;;;5.40;1.63;;;-0.90;99.90;;;;;;5067017;28;20052;-48
2020/12/14 05:00:19;;;;;;;4.78;1.92;;;-0.80;99.90;;;;;;5071904;28;20055;-48
2020/12/14 05:02:56;;;;;;;3.95;2.50;;;-0.90;99.90;;;;;;5066530;28;20140;-48
2020/12/14 05:05:24;;;;;;;4.90;2.70;;;-1.10;99.90;;;;;;5066306;28;20044;-48
2020/12/14 05:07:51;;;;;;;8.93;3.05;;;-1.00;99.90;;;;;;5066638;28;20049;-48
2020/12/14 05:10:28;;;;;;;12.65;6.93;;;-1.00;99.90;;;;;;5064945;28;20043;-48
2020/12/14 05:12:55;;;;;;;9.65;4.38;;;-1.00;99.90;;;;;;5058574;28;20405;-47
2020/12/14 05:15:30;;;;;;;7.22;4.25;;;-1.10;99.90;;;;;;5063973;28;20052;-47
2020/12/14 05:18:16;;;;;;;4.75;3.42;;;-1.30;99.90;;;;;;5062014;28;20521;-48
2020/12/14 05:20:56;;;;;;;5.03;3.25;;;-1.30;99.90;;;;;;5064604;28;20139;-48
2020/12/14 05:23:23;;;;;;;5.93;2.97;;;-1.40;99.90;;;;;;5056548;28;20052;-48
2020/12/14 05:25:50;;;;;;;5.65;2.67;;;-1.40;99.90;;;;;;5072244;28;20465;-47
2020/12/14 05:28:19;;;;;;;3.65;2.58;;;-1.30;99.90;;;;;;5071362;28;20440;-47
2020/12/14 05:30:50;;;;;;;4.60;2.45;;;-1.30;99.90;;;;;;5055410;28;20394;-47
2020/12/14 05:33:22;;;;;;;3.08;1.40;;;-1.20;99.90;;;;;;5064386;28;20079;-48
2020/12/14 05:35:50;;;;;;;5.50;1.45;;;-1.20;99.90;;;;;;5069836;28;20044;-47
2020/12/14 05:38:23;;;;;;;3.47;1.35;;;-1.10;99.90;;;;;;5068619;28;20040;-47
2020/12/14 05:40:52;;;;;;;2.38;1.60;;;-1.10;99.90;;;;;;5070436;28;20052;-47
2020/12/14 05:43:21;;;;;;;2.40;1.58;;;-1.10;99.90;;;;;;5065430;28;20482;-47
2020/12/14 05:45:49;;;;;;;4.95;2.55;;;-1.30;99.90;;;;;;5068477;28;20432;-47
2020/12/14 05:48:27;;;;;;;5.40;2.45;;;-1.30;99.90;;;;;;5069451;28;20041;-49
2020/12/14 05:50:57;;;;;;;4.55;2.60;;;-1.40;99.90;;;;;;5064192;28;20385;-47
2020/12/14 05:53:31;;;;;;;7.75;4.53;;;-1.40;99.90;;;;;;5070380;28;20051;-47
2020/12/14 05:55:59;;;;;;;9.95;6.13;;;-1.50;99.90;;;;;;5068001;28;20040;-48
2020/12/14 05:58:28;;;;;;;5.20;2.53;;;-1.50;99.90;;;;;;5071617;28;20048;-50
2020/12/14 06:00:55;;;;;;;4.32;2.08;;;-1.50;99.90;;;;;;5067645;28;20057;-47
2020/12/14 06:03:25;;;;;;;1.17;0.90;;;-1.50;99.90;;;;;;5064360;28;20053;-48
2020/12/14 06:06:16;;;;;;;1.40;0.40;;;-1.50;99.90;;;;;;5066646;28;20098;-47
2020/12/14 06:08:45;;;;;;;0.52;0.43;;;-1.50;99.90;;;;;;5067125;28;20057;-47
2020/12/14 06:11:17;;;;;;;0.80;0.60;;;-1.40;99.90;;;;;;5070234;28;20048;-48
2020/12/14 06:13:44;;;;;;;2.35;0.50;;;-1.40;99.90;;;;;;5068561;28;20051;-47
2020/12/14 06:16:15;;;;;;;0.50;0.40;;;-1.30;99.90;;;;;;5070750;28;20045;-48
2020/12/14 06:18:44;;;;;;;0.82;0.60;;;-1.20;99.90;;;;;;5066650;28;20451;-48
2020/12/14 06:21:18;;;;;;;1.17;0.70;;;-1.30;99.90;;;;;;5069900;28;20063;-48
2020/12/14 06:23:47;;;;;;;2.05;0.70;;;-1.30;99.90;;;;;;5068785;28;20044;-48
2020/12/14 06:26:15;;;;;;;2.00;0.90;;;-1.40;99.90;;;;;;5069164;28;20385;-48
2020/12/14 06:28:52;;;;;;;4.28;0.80;;;-1.30;99.90;;;;;;5068613;28;20044;-48
2020/12/14 06:31:36;;;;;;;0.88;0.77;;;-1.30;99.90;;;;;;5068746;28;20051;-48
2020/12/14 06:34:31;;;;;;;3.75;0.80;;;-1.30;99.90;;;;;;5073385;28;20040;-48
2020/12/14 06:37:03;;;;;;;2.75;0.90;;;-1.30;99.90;;;;;;5061787;28;20049;-48
2020/12/14 06:39:36;;;;;;;4.88;1.15;;;-1.30;99.90;;;;;;5068270;28;20067;-48
2020/12/14 06:42:07;;;;;;;3.28;1.23;;;-1.30;99.90;;;;;;5072746;28;20590;-48
2020/12/14 06:44:55;;;;;;;2.53;1.02;;;-1.20;99.90;;;;;;5069193;28;20059;-48
2020/12/14 06:47:21;;;;;;;2.03;1.20;;;-1.20;99.90;;;;;;5055205;28;20056;-48
2020/12/14 06:49:48;;;;;;;5.55;1.42;;;-1.20;99.90;;;;;;5072705;28;20125;-48
2020/12/14 06:52:44;;;;;;;34.85;21.33;;;-1.20;99.90;;;;;;5061638;28;20397;-48
2020/12/14 06:55:12;;;;;;;22.80;17.48;;;-1.30;99.90;;;;;;5012582;28;20053;-49
2020/12/14 06:57:39;;;;;;;23.45;17.50;;;-1.20;99.90;;;;;;5009319;28;20057;-47
2020/12/14 07:00:08;;;;;;;5.57;3.92;;;-1.20;99.90;;;;;;5012165;28;20046;-52
2020/12/14 07:02:42;;;;;;;10.65;5.70;;;-1.20;99.90;;;;;;5010056;28;20046;-48
2020/12/14 07:05:30;;;;;;;7.38;3.60;;;-1.20;99.90;;;;;;5012396;28;20061;-49
2020/12/14 07:07:58;;;;;;;9.40;5.05;;;-1.10;99.90;;;;;;5009852;28;20487;-50
2020/12/14 07:10:26;;;;;;;7.22;4.07;;;-1.10;99.90;;;;;;5008925;28;20054;-48
2020/12/14 07:12:53;;;;;;;5.82;3.13;;;-1.00;99.90;;;;;;5011534;28;20464;-48
2020/12/14 07:15:36;;;;;;;13.10;5.55;;;-1.00;99.90;;;;;;5008245;28;20113;-48
2020/12/14 07:18:04;;;;;;;12.10;7.10;;;-1.00;99.90;;;;;;5012332;28;20050;-48
2020/12/14 07:20:32;;;;;;;2.17;1.15;;;-1.00;99.90;;;;;;5010361;28;20050;-48
2020/12/14 07:23:06;;;;;;;3.75;2.10;;;-1.00;99.90;;;;;;5010093;28;20042;-48
2020/12/14 07:25:34;;;;;;;4.18;2.35;;;-0.80;99.90;;;;;;5011002;28;20077;-48
2020/12/14 07:28:02;;;;;;;22.08;12.68;;;-0.70;99.90;;;;;;5008944;28;20082;-48
2020/12/14 07:30:29;;;;;;;36.47;24.08;;;-0.90;99.90;;;;;;5013905;28;20069;-48
2020/12/14 07:32:58;;;;;;;67.90;33.78;;;-0.90;99.90;;;;;;5067233;28;20049;-48
2020/12/14 07:35:25;;;;;;;33.78;20.73;;;-1.00;99.90;;;;;;5060412;28;20041;-48
2020/12/14 07:37:52;;;;;;;29.90;14.98;;;-1.00;99.90;;;;;;5070156;28;20492;-48
2020/12/14 07:40:18;;;;;;;34.08;20.25;;;-1.00;99.90;;;;;;5073577;28;20056;-49
2020/12/14 07:42:45;;;;;;;33.55;19.90;;;-0.90;99.90;;;;;;5070021;28;20063;-48
2020/12/14 07:45:20;;;;;;;46.60;24.10;;;-0.80;99.90;;;;;;5070105;28;20048;-48
2020/12/14 07:47:50;;;;;;;37.55;22.98;;;-0.80;99.90;;;;;;5065785;28;20048;-48
2020/12/14 07:50:26;;;;;;;108.65;55.10;;;-0.70;99.90;;;;;;5069598;28;20045;-48
2020/12/14 07:52:54;;;;;;;44.90;25.52;;;-0.80;99.90;;;;;;5072564;28;20094;-48
2020/12/14 07:55:27;;;;;;;48.10;28.70;;;-1.00;99.90;;;;;;5067373;28;20433;-48
2020/12/14 07:57:54;;;;;;;38.05;18.67;;;-1.10;99.90;;;;;;5055058;28;20060;-48
2020/12/14 08:00:23;;;;;;;21.15;11.50;;;-1.10;99.90;;;;;;5072584;28;20059;-48
2020/12/14 08:02:50;;;;;;;39.78;22.60;;;-1.20;99.90;;;;;;5070648;28;20067;-48
2020/12/14 08:05:19;;;;;;;36.90;19.90;;;-1.20;99.90;;;;;;5070269;28;20493;-50
2020/12/14 08:07:53;;;;;;;14.70;8.25;;;-1.30;99.90;;;;;;5072030;28;20044;-48
2020/12/14 08:10:31;;;;;;;4.80;2.25;;;-1.10;99.90;;;;;;5061337;28;20040;-48
2020/12/14 08:13:13;;;;;;;1.33;0.75;;;-1.00;99.90;;;;;;5065732;28;20052;-48
2020/12/14 08:15:42;;;;;;;0.40;0.30;;;-0.80;99.90;;;;;;5060085;28;20106;-48
2020/12/14 08:18:13;;;;;;;0.60;0.40;;;-0.60;99.90;;;;;;5061023;28;20099;-49
2020/12/14 08:20:41;;;;;;;4.55;2.72;;;-0.50;99.90;;;;;;5064106;28;20060;-48
2020/12/14 08:23:18;;;;;;;0.47;0.40;;;-0.40;99.90;;;;;;5062160;28;20049;-48
2020/12/14 08:25:47;;;;;;;0.10;0.10;;;-0.20;99.90;;;;;;5066181;28;20041;-48
2020/12/14 08:28:13;;;;;;;2.63;1.17;;;0.00;99.90;;;;;;5054887;28;20060;-50
2020/12/14 08:30:40;;;;;;;7.38;3.80;;;0.10;99.90;;;;;;5068467;28;20063;-48
2020/12/14 08:33:19;;;;;;;9.95;2.00;;;0.30;99.90;;;;;;5045677;28;20040;-48
2020/12/14 08:35:53;;;;;;;2.42;1.98;;;0.50;99.90;;;;;;5071333;28;20044;-48
2020/12/14 08:38:25;;;;;;;3.90;1.98;;;0.40;99.90;;;;;;5068595;28;20056;-48
2020/12/14 08:41:03;;;;;;;3.15;1.80;;;0.40;99.90;;;;;;5072402;28;20056;-48
2020/12/14 08:43:32;;;;;;;5.63;3.38;;;0.40;99.90;;;;;;5068310;28;20049;-48
2020/12/14 08:46:07;;;;;;;7.68;2.63;;;0.40;99.90;;;;;;5063508;28;20049;-48
2020/12/14 08:48:55;;;;;;;17.17;9.20;;;0.40;99.90;;;;;;5067473;28;20097;-48
2020/12/14 08:51:27;;;;;;;63.08;29.52;;;0.50;99.90;;;;;;5069004;28;20509;-48
2020/12/14 08:54:09;;;;;;;42.90;21.92;;;0.50;99.90;;;;;;5071506;28;20060;-48
2020/12/14 08:56:35;;;;;;;39.90;23.48;;;0.70;99.90;;;;;;5069028;28;20063;-49
2020/12/14 08:59:02;;;;;;;25.73;15.45;;;0.80;99.90;;;;;;5071141;28;20044;-49
2020/12/14 09:01:31;;;;;;;16.95;7.93;;;0.90;99.90;;;;;;5066554;28;20502;-48
2020/12/14 09:03:59;;;;;;;7.05;3.45;;;1.00;99.90;;;;;;5055798;28;20388;-48
2020/12/14 09:06:36;;;;;;;5.95;3.83;;;1.20;99.90;;;;;;5068824;28;20067;-48
2020/12/14 09:09:09;;;;;;;6.25;1.42;;;1.40;99.90;;;;;;5069031;28;20425;-48
2020/12/14 09:11:47;;;;;;;;;;;1.50;99.90;;;;;;5060219;28;20037;-48
2020/12/14 09:14:25;;;;;;;23.52;16.13;;;1.50;99.90;;;;;;5063136;28;19928;-49
2020/12/14 09:16:54;;;;;;;1.98;0.77;;;1.50;99.90;;;;;;5057050;28;20048;-48
2020/12/14 09:19:23;;;;;;;1.85;0.50;;;1.50;99.90;;;;;;5066969;28;20052;-49
2020/12/14 09:21:50;;;;;;;8.23;3.10;;;1.50;99.90;;;;;;5057826;28;20071;-48
2020/12/14 09:24:21;;;;;;;12.07;6.78;;;1.60;99.90;;;;;;5061318;28;20072;-48
2020/12/14 09:26:50;;;;;;;19.98;10.23;;;1.70;99.90;;;;;;5058354;28;20037;-52
2020/12/14 09:29:16;;;;;;;20.77;12.10;;;1.80;99.90;;;;;;5071873;28;20049;-48
2020/12/14 09:31:54;;;;;;;21.90;16.75;;;1.80;99.90;;;;;;5062173;28;20044;-48
2020/12/14 09:34:22;;;;;;;82.95;40.47;;;1.90;99.90;;;;;;5055713;28;20686;-49
2020/12/14 09:36:56;;;;;;;14.15;10.73;;;2.00;99.90;;;;;;5064089;28;20056;-48
2020/12/14 09:39:26;;;;;;;1.90;1.65;;;2.20;99.90;;;;;;5054511;28;20052;-49
2020/12/14 09:41:55;;;;;;;0.93;0.63;;;2.30;99.90;;;;;;5069178;28;20041;-48
2020/12/14 09:44:23;;;;;;;2.65;1.45;;;2.50;99.90;;;;;;5059696;28;20052;-49
2020/12/14 09:46:50;;;;;;;1.65;0.90;;;2.80;99.90;;;;;;5067419;28;20048;-48
2020/12/14 09:49:17;;;;;;;23.95;12.00;;;3.00;99.90;;;;;;5069089;28;20048;-50
2020/12/14 09:51:43;;;;;;;1.67;0.95;;;3.20;99.90;;;;;;5059255;28;20045;-49
2020/12/14 09:54:10;;;;;;;1.02;0.70;;;3.30;99.90;;;;;;5066285;28;20071;-49
2020/12/14 09:56:37;;;;;;;1.77;0.90;;;3.40;99.90;;;;;;5057003;28;20056;-48
2020/12/14 09:59:04;;;;;;;1.98;0.85;;;3.40;99.90;;;;;;5066208;28;20477;-49
2020/12/14 10:01:31;;;;;;;4.75;2.05;;;3.50;99.90;;;;;;5052880;28;20056;-48
2020/12/14 10:03:58;;;;;;;4.35;1.85;;;3.60;99.90;;;;;;5067978;28;20067;-49
2020/12/14 10:06:26;;;;;;;1.60;1.30;;;3.80;99.90;;;;;;5074505;28;20072;-48
2020/12/14 10:08:54;;;;;;;7.57;3.10;;;3.90;99.90;;;;;;5072495;28;20040;-49
2020/12/14 10:11:25;;;;;;;11.30;5.72;;;4.00;99.90;;;;;;5070714;28;20068;-50
2020/12/14 10:13:53;;;;;;;6.30;2.38;;;4.10;99.90;;;;;;5075686;28;20045;-49
2020/12/14 10:16:21;;;;;;;2.03;1.20;;;4.20;99.90;;;;;;5066720;28;20501;-49
2020/12/14 10:18:48;;;;;;;7.15;2.75;;;4.30;99.90;;;;;;5061901;28;20131;-49
2020/12/14 10:21:15;;;;;;;4.22;1.90;;;4.40;99.90;;;;;;5069204;28;20048;-48
2020/12/14 10:23:42;;;;;;;5.15;2.63;;;4.50;99.90;;;;;;5075087;28;20492;-48
2020/12/14 10:26:10;;;;;;;3.03;2.08;;;4.60;99.90;;;;;;5073186;28;20036;-48
2020/12/14 10:28:37;;;;;;;2.53;1.63;;;4.70;99.90;;;;;;5065371;28;20045;-48
2020/12/14 10:31:07;;;;;;;2.08;1.92;;;4.80;99.90;;;;;;5071882;28;20118;-48
2020/12/14 10:33:36;;;;;;;1.77;1.27;;;4.90;99.90;;;;;;5070910;28;20094;-48
2020/12/14 10:36:10;;;;;;;3.03;1.10;;;5.00;99.90;;;;;;5067526;28;20130;-48
2020/12/14 10:38:38;;;;;;;2.58;1.70;;;5.20;99.90;;;;;;5069342;28;20413;-48
2020/12/14 10:41:05;;;;;;;3.20;1.25;;;5.30;99.90;;;;;;5073587;28;20417;-49
2020/12/14 10:43:32;;;;;;;2.35;1.17;;;5.40;99.90;;;;;;5070538;28;20496;-48
2020/12/14 10:45:59;;;;;;;2.40;1.30;;;5.50;99.90;;;;;;5062276;28;20497;-48
2020/12/14 10:48:26;;;;;;;3.15;1.00;;;6.00;99.90;;;;;;5072137;28;20461;-48
2020/12/14 10:50:55;;;;;;;3.60;0.73;;;6.10;99.90;;;;;;5070742;28;20044;-49
2020/12/14 10:53:21;;;;;;;1.83;1.23;;;6.10;99.90;;;;;;5065020;28;20048;-50
2020/12/14 10:55:48;;;;;;;8.70;2.65;;;6.20;99.90;;;;;;5069162;28;20720;-49
2020/12/14 10:58:14;;;;;;;7.10;2.60;;;6.70;99.90;;;;;;5061775;28;20622;-48
2020/12/14 11:00:41;;;;;;;4.28;3.13;;;7.10;99.90;;;;;;5066779;28;20052;-49
2020/12/14 11:03:08;;;;;;;8.30;2.10;;;7.50;99.90;;;;;;5069714;28;20040;-49
2020/12/14 11:05:35;;;;;;;9.02;5.35;;;7.70;99.90;;;;;;5069423;28;20061;-49
2020/12/14 11:08:01;;;;;;;5.65;4.72;;;7.70;99.90;;;;;;5071376;28;20055;-50
2020/12/14 11:10:28;;;;;;;16.23;9.60;;;7.70;99.90;;;;;;5069583;28;20040;-49
2020/12/14 11:12:55;;;;;;;8.10;4.35;;;7.80;99.90;;;;;;5072914;28;20049;-50
2020/12/14 11:15:21;;;;;;;11.77;7.13;;;8.10;99.90;;;;;;5071048;28;20054;-49
2020/12/14 11:17:48;;;;;;;4.50;3.65;;;8.30;99.90;;;;;;5069464;28;20044;-49
2020/12/14 11:20:16;;;;;;;5.32;3.67;;;8.40;99.90;;;;;;5072725;28;20044;-49
2020/12/14 11:22:42;;;;;;;7.20;3.25;;;8.20;99.90;;;;;;5066826;28;20080;-49
2020/12/14 11:25:10;;;;;;;4.68;2.40;;;8.00;99.90;;;;;;5074176;28;20056;-49
2020/12/14 11:27:37;;;;;;;1.42;1.20;;;7.80;99.90;;;;;;5076709;28;20055;-49
2020/12/14 11:30:07;;;;;;;2.45;1.13;;;7.70;99.90;;;;;;5072916;28;20126;-49
2020/12/14 11:32:34;;;;;;;3.45;1.05;;;7.70;99.90;;;;;;5069253;28;20072;-49
2020/12/14 11:35:00;;;;;;;1.20;0.98;;;7.90;99.90;;;;;;5073356;28;20056;-49
2020/12/14 11:37:27;;;;;;;1.20;0.90;;;8.00;99.90;;;;;;5064501;28;20045;-49
2020/12/14 11:39:54;;;;;;;1.10;0.80;;;8.20;99.90;;;;;;5060826;28;20044;-49
2020/12/14 11:42:21;;;;;;;1.63;0.70;;;8.30;99.90;;;;;;5069275;28;20051;-52
2020/12/14 11:44:48;;;;;;;0.65;0.52;;;8.30;99.90;;;;;;5065803;28;20101;-51
2020/12/14 11:47:14;;;;;;;0.40;0.30;;;8.60;99.90;;;;;;5064468;28;20084;-49
2020/12/14 11:49:41;;;;;;;0.45;0.30;;;8.70;99.90;;;;;;5066521;28;20057;-50
2020/12/14 11:52:08;;;;;;;0.40;0.40;;;8.80;99.90;;;;;;5073177;28;20680;-49
2020/12/14 11:54:35;;;;;;;0.57;0.40;;;8.90;99.90;;;;;;5071595;28;20054;-50
2020/12/14 11:57:02;;;;;;;1.38;0.70;;;9.00;99.90;;;;;;5064175;28;20048;-50
2020/12/14 11:59:28;;;;;;;2.35;0.70;;;9.10;99.90;;;;;;5070353;28;20071;-51
2020/12/14 12:01:55;;;;;;;0.70;0.50;;;9.40;99.90;;;;;;5072465;28;20524;-50
2020/12/14 12:04:22;;;;;;;0.40;0.32;;;9.50;99.90;;;;;;5067687;28;20401;-49
2020/12/14 12:06:49;;;;;;;0.28;0.20;;;9.60;99.90;;;;;;5061324;28;20060;-49
2020/12/14 12:09:36;;;;;;;0.40;0.30;;;9.70;99.90;;;;;;5061563;28;20048;-50
2020/12/14 12:12:04;;;;;;;0.70;0.50;;;9.90;99.90;;;;;;5060642;28;20477;-49
2020/12/14 12:14:31;;;;;;;1.83;0.40;;;10.10;99.90;;;;;;5059911;28;20056;-50
2020/12/14 12:16:58;;;;;;;1.05;0.65;;;10.20;99.90;;;;;;5063928;28;20056;-50
2020/12/14 12:19:25;;;;;;;4.88;3.15;;;10.30;99.90;;;;;;5065348;28;20076;-49
2020/12/14 12:21:52;;;;;;;0.65;0.40;;;10.40;99.90;;;;;;5067095;28;20044;-49
2020/12/14 12:24:21;;;;;;;10.75;5.45;;;10.50;99.30;;;;;;5054814;28;20091;-50
2020/12/14 12:26:51;;;;;;;1.73;0.80;;;10.70;99.80;;;;;;5069353;28;20036;-50
2020/12/14 12:29:18;;;;;;;2.88;2.67;;;10.80;99.90;;;;;;5065858;28;20052;-50
2020/12/14 12:31:52;;;;;;;3.35;3.13;;;10.90;99.90;;;;;;5071990;28;20041;-49
2020/12/14 12:34:35;;;;;;;0.50;0.43;;;11.00;99.90;;;;;;5068503;28;20052;-49
2020/12/14 12:37:03;;;;;;;0.38;0.38;;;11.10;99.50;;;;;;5070238;28;20056;-49
2020/12/14 12:39:30;;;;;;;0.40;0.30;;;11.10;99.70;;;;;;5068705;28;20048;-49
2020/12/14 12:41:57;;;;;;;0.50;0.40;;;11.40;99.90;;;;;;5072242;28;20044;-49
2020/12/14 12:44:24;;;;;;;0.52;0.40;;;11.60;99.90;;;;;;5070647;28;20049;-50
2020/12/14 12:46:51;;;;;;;0.50;0.40;;;12.00;99.90;;;;;;5072034;28;20607;-50
2020/12/14 12:49:18;;;;;;;2.05;0.43;;;12.20;99.90;;;;;;5069823;28;20055;-51
2020/12/14 12:51:49;;;;;;;2.90;0.60;;;12.50;97.00;;;;;;5071858;28;20404;-50
2020/12/14 12:54:16;;;;;;;1.30;0.77;;;12.50;96.20;;;;;;5065924;28;20381;-50
2020/12/14 12:56:43;;;;;;;1.67;0.98;;;12.50;95.80;;;;;;5069190;28;20048;-50